Ricardo, Texas
Current Conditions -  °F | °C
As of 9:56 AM on Thursday 30 Oct 2014 (Local Time) from KNQI Reporting Station
Few Clouds Few Clouds  
Wind Chill: 79°   Ceiling: Unl
Heat Index: 82°   Visibility: 8mi
Dew Point: 73°   Wind: 5mph
Humidity: 82%   Direction: 30°NNE
Pressure: 30.11"   Gusts: NA
Location:  27.4762°N, 97.7965°W
Report Text: KNQI 301456Z 03004KT 8SM FEW010 FEW020 26/23 A3011 RMK AO2 SLP191 T02610228 51016
Loading
Personal Weather Stations






























Interactive Weather Map
Tropical Storm Tracking
New forecast layout! Learn more

10-Day Weather Forecast

Advertisements
Track Severe Weather on mobile